sensor_id;sensor_type;location;lat;lon;timestamp;pressure;altitude;pressure_sealevel;temperature;humidity
43364;BME280;40636;52.424;-1.948;2023-09-07T00:02:09;100281.03;;;18.19;100.00
43364;BME280;40636;52.424;-1.948;2023-09-07T00:04:37;100286.09;;;18.17;100.00
43364;BME280;40636;52.424;-1.948;2023-09-07T00:07:04;100290.81;;;18.17;100.00
43364;BME280;40636;52.424;-1.948;2023-09-07T00:09:31;100286.13;;;18.12;100.00
43364;BME280;40636;52.424;-1.948;2023-09-07T00:11:58;100283.94;;;18.09;100.00
43364;BME280;40636;52.424;-1.948;2023-09-07T00:14:25;100283.94;;;18.09;100.00
43364;BME280;40636;52.424;-1.948;2023-09-07T00:16:52;100289.22;;;18.06;100.00
43364;BME280;40636;52.424;-1.948;2023-09-07T00:19:19;100292.59;;;18.03;100.00
43364;BME280;40636;52.424;-1.948;2023-09-07T00:21:46;100289.81;;;18.03;100.00
43364;BME280;40636;52.424;-1.948;2023-09-07T00:24:12;100279.00;;;18.01;100.00
43364;BME280;40636;52.424;-1.948;2023-09-07T00:26:39;100282.34;;;17.98;100.00
43364;BME280;40636;52.424;-1.948;2023-09-07T00:29:06;100287.91;;;17.98;100.00
43364;BME280;40636;52.424;-1.948;2023-09-07T00:31:33;100287.09;;;17.97;100.00
43364;BME280;40636;52.424;-1.948;2023-09-07T00:34:03;100279.53;;;18.03;100.00
43364;BME280;40636;52.424;-1.948;2023-09-07T00:36:30;100272.31;;;18.02;100.00
43364;BME280;40636;52.424;-1.948;2023-09-07T00:38:56;100263.72;;;18.04;100.00
43364;BME280;40636;52.424;-1.948;2023-09-07T00:41:23;100264.28;;;18.00;100.00
43364;BME280;40636;52.424;-1.948;2023-09-07T00:43:50;100269.84;;;18.00;100.00
43364;BME280;40636;52.424;-1.948;2023-09-07T00:46:17;100265.41;;;17.99;100.00
43364;BME280;40636;52.424;-1.948;2023-09-07T00:48:44;100273.19;;;17.97;100.00
43364;BME280;40636;52.424;-1.948;2023-09-07T00:51:11;100272.13;;;17.93;100.00
43364;BME280;40636;52.424;-1.948;2023-09-07T00:53:37;100266.34;;;17.90;100.00
43364;BME280;40636;52.424;-1.948;2023-09-07T00:56:05;100268.88;;;17.86;100.00
43364;BME280;40636;52.424;-1.948;2023-09-07T00:58:33;100259.72;;;17.86;100.00
43364;BME280;40636;52.424;-1.948;2023-09-07T01:01:03;100262.50;;;17.86;100.00
43364;BME280;40636;52.424;-1.948;2023-09-07T01:03:29;100264.41;;;17.90;100.00
43364;BME280;40636;52.424;-1.948;2023-09-07T01:08:45;100266.66;;;17.83;100.00
43364;BME280;40636;52.424;-1.948;2023-09-07T01:11:17;100278.06;;;17.82;100.00
43364;BME280;40636;52.424;-1.948;2023-09-07T01:13:44;100260.81;;;17.85;100.00
43364;BME280;40636;52.424;-1.948;2023-09-07T01:16:13;100260.81;;;17.85;100.00
43364;BME280;40636;52.424;-1.948;2023-09-07T01:18:41;100259.16;;;17.84;100.00
43364;BME280;40636;52.424;-1.948;2023-09-07T01:21:11;100254.69;;;17.88;100.00
43364;BME280;40636;52.424;-1.948;2023-09-07T01:23:40;100251.59;;;17.89;100.00
43364;BME280;40636;52.424;-1.948;2023-09-07T01:26:09;100252.69;;;17.93;100.00
43364;BME280;40636;52.424;-1.948;2023-09-07T01:28:37;100249.03;;;17.98;100.00
43364;BME280;40636;52.424;-1.948;2023-09-07T01:31:04;100251.53;;;17.99;100.00
43364;BME280;40636;52.424;-1.948;2023-09-07T01:33:32;100252.88;;;18.02;100.00
43364;BME280;40636;52.424;-1.948;2023-09-07T01:35:59;100249.22;;;18.07;100.00
43364;BME280;40636;52.424;-1.948;2023-09-07T01:38:26;100241.13;;;18.10;100.00
43364;BME280;40636;52.424;-1.948;2023-09-07T01:40:53;100251.13;;;18.11;100.00
43364;BME280;40636;52.424;-1.948;2023-09-07T01:43:20;100238.38;;;18.10;100.00
43364;BME280;40636;52.424;-1.948;2023-09-07T01:45:47;100249.78;;;18.09;100.00
43364;BME280;40636;52.424;-1.948;2023-09-07T01:48:14;100247.28;;;18.07;100.00
43364;BME280;40636;52.424;-1.948;2023-09-07T01:50:41;100239.50;;;18.09;100.00
43364;BME280;40636;52.424;-1.948;2023-09-07T01:53:08;100237.22;;;18.11;100.00
43364;BME280;40636;52.424;-1.948;2023-09-07T01:55:35;100236.13;;;18.12;100.00
43364;BME280;40636;52.424;-1.948;2023-09-07T01:58:02;100244.16;;;18.14;100.00
43364;BME280;40636;52.424;-1.948;2023-09-07T02:00:29;100244.47;;;18.12;100.00
43364;BME280;40636;52.424;-1.948;2023-09-07T02:02:56;100236.97;;;18.13;100.00
43364;BME280;40636;52.424;-1.948;2023-09-07T02:05:23;100231.94;;;18.15;100.00
43364;BME280;40636;52.424;-1.948;2023-09-07T02:07:50;100238.31;;;18.15;100.00
43364;BME280;40636;52.424;-1.948;2023-09-07T02:10:18;100224.16;;;18.17;100.00
43364;BME280;40636;52.424;-1.948;2023-09-07T02:12:45;100221.06;;;18.18;100.00
43364;BME280;40636;52.424;-1.948;2023-09-07T02:15:13;100220.47;;;18.21;100.00
43364;BME280;40636;52.424;-1.948;2023-09-07T02:17:40;100229.03;;;18.25;100.00
43364;BME280;40636;52.424;-1.948;2023-09-07T02:20:07;100224.53;;;18.29;100.00
43364;BME280;40636;52.424;-1.948;2023-09-07T02:22:38;100228.69;;;18.32;100.00
43364;BME280;40636;52.424;-1.948;2023-09-07T02:25:05;100232.06;;;18.29;100.00
43364;BME280;40636;52.424;-1.948;2023-09-07T02:27:33;100226.81;;;18.27;100.00
43364;BME280;40636;52.424;-1.948;2023-09-07T02:30:00;100216.50;;;18.28;100.00
43364;BME280;40636;52.424;-1.948;2023-09-07T02:32:28;100207.03;;;18.29;100.00
43364;BME280;40636;52.424;-1.948;2023-09-07T02:34:55;100200.66;;;18.28;100.00
43364;BME280;40636;52.424;-1.948;2023-09-07T02:37:22;100202.63;;;18.28;100.00
43364;BME280;40636;52.424;-1.948;2023-09-07T02:39:49;100193.75;;;18.25;100.00
43364;BME280;40636;52.424;-1.948;2023-09-07T02:42:16;100192.81;;;18.35;100.00
43364;BME280;40636;52.424;-1.948;2023-09-07T02:44:42;100194.03;;;18.48;100.00
43364;BME280;40636;52.424;-1.948;2023-09-07T02:47:09;100190.66;;;18.51;100.00
43364;BME280;40636;52.424;-1.948;2023-09-07T02:49:38;100183.91;;;18.57;100.00
43364;BME280;40636;52.424;-1.948;2023-09-07T02:52:05;100184.13;;;18.61;100.00
43364;BME280;40636;52.424;-1.948;2023-09-07T02:54:32;100191.59;;;18.65;100.00
43364;BME280;40636;52.424;-1.948;2023-09-07T02:56:59;100198.78;;;18.66;100.00
43364;BME280;40636;52.424;-1.948;2023-09-07T02:59:26;100206.84;;;18.68;100.00
43364;BME280;40636;52.424;-1.948;2023-09-07T03:01:52;100211.81;;;18.71;100.00
43364;BME280;40636;52.424;-1.948;2023-09-07T03:04:19;100212.88;;;18.75;100.00
43364;BME280;40636;52.424;-1.948;2023-09-07T03:06:46;100221.47;;;18.79;100.00
43364;BME280;40636;52.424;-1.948;2023-09-07T03:09:13;100215.38;;;18.77;100.00
43364;BME280;40636;52.424;-1.948;2023-09-07T03:11:40;100209.59;;;18.73;100.00
43364;BME280;40636;52.424;-1.948;2023-09-07T03:14:07;100203.78;;;18.69;100.00
43364;BME280;40636;52.424;-1.948;2023-09-07T03:16:34;100207.97;;;18.67;100.00
43364;BME280;40636;52.424;-1.948;2023-09-07T03:19:01;100196.56;;;18.68;100.00
43364;BME280;40636;52.424;-1.948;2023-09-07T03:21:28;100197.03;;;18.75;100.00
43364;BME280;40636;52.424;-1.948;2023-09-07T03:23:56;100193.59;;;18.84;100.00
43364;BME280;40636;52.424;-1.948;2023-09-07T03:26:24;100191.84;;;18.88;100.00
43364;BME280;40636;52.424;-1.948;2023-09-07T03:28:51;100185.16;;;18.89;100.00
43364;BME280;40636;52.424;-1.948;2023-09-07T03:31:19;100183.22;;;18.89;100.00
43364;BME280;40636;52.424;-1.948;2023-09-07T03:33:46;100187.94;;;18.89;100.00
43364;BME280;40636;52.424;-1.948;2023-09-07T03:36:13;100183.22;;;18.89;100.00
43364;BME280;40636;52.424;-1.948;2023-09-07T03:38:43;100177.88;;;18.93;100.00
43364;BME280;40636;52.424;-1.948;2023-09-07T03:41:10;100173.22;;;18.88;100.00
43364;BME280;40636;52.424;-1.948;2023-09-07T03:43:37;100181.28;;;18.90;100.00
43364;BME280;40636;52.424;-1.948;2023-09-07T03:46:03;100188.19;;;18.92;100.00
43364;BME280;40636;52.424;-1.948;2023-09-07T03:48:30;100195.94;;;18.95;100.00
43364;BME280;40636;52.424;-1.948;2023-09-07T03:50:58;100192.84;;;18.97;100.00
43364;BME280;40636;52.424;-1.948;2023-09-07T03:53:25;100196.75;;;18.96;100.00
43364;BME280;40636;52.424;-1.948;2023-09-07T03:55:52;100189.63;;;18.90;100.00
43364;BME280;40636;52.424;-1.948;2023-09-07T03:58:19;100188.03;;;18.84;100.00
43364;BME280;40636;52.424;-1.948;2023-09-07T04:00:45;100186.97;;;18.80;100.00
43364;BME280;40636;52.424;-1.948;2023-09-07T04:03:13;100180.34;;;18.75;100.00
43364;BME280;40636;52.424;-1.948;2023-09-07T04:05:40;100188.81;;;18.65;100.00
43364;BME280;40636;52.424;-1.948;2023-09-07T04:08:07;100186.81;;;18.71;100.00
43364;BME280;40636;52.424;-1.948;2023-09-07T04:10:37;100193.72;;;18.73;100.00
43364;BME280;40636;52.424;-1.948;2023-09-07T04:13:04;100190.44;;;18.71;100.00
43364;BME280;40636;52.424;-1.948;2023-09-07T04:15:33;100183.78;;;18.67;100.00
43364;BME280;40636;52.424;-1.948;2023-09-07T04:18:00;100185.19;;;18.65;100.00
43364;BME280;40636;52.424;-1.948;2023-09-07T04:20:27;100187.66;;;18.66;100.00
43364;BME280;40636;52.424;-1.948;2023-09-07T04:22:55;100194.97;;;18.62;100.00
43364;BME280;40636;52.424;-1.948;2023-09-07T04:25:22;100186.63;;;18.62;100.00
43364;BME280;40636;52.424;-1.948;2023-09-07T04:27:49;100194.44;;;18.60;100.00
43364;BME280;40636;52.424;-1.948;2023-09-07T04:30:16;100184.75;;;18.58;100.00
43364;BME280;40636;52.424;-1.948;2023-09-07T04:32:43;100182.31;;;18.51;100.00
43364;BME280;40636;52.424;-1.948;2023-09-07T04:35:10;100177.06;;;18.49;100.00
43364;BME280;40636;52.424;-1.948;2023-09-07T04:37:37;100183.97;;;18.52;100.00
43364;BME280;40636;52.424;-1.948;2023-09-07T04:40:06;100171.22;;;18.51;100.00
43364;BME280;40636;52.424;-1.948;2023-09-07T04:42:32;100168.91;;;18.58;100.00
43364;BME280;40636;52.424;-1.948;2023-09-07T04:44:59;100166.94;;;18.59;100.00
43364;BME280;40636;52.424;-1.948;2023-09-07T04:47:26;100170.63;;;18.54;100.00
43364;BME280;40636;52.424;-1.948;2023-09-07T04:49:53;100172.78;;;18.57;100.00
43364;BME280;40636;52.424;-1.948;2023-09-07T04:52:20;100173.00;;;18.61;100.00
43364;BME280;40636;52.424;-1.948;2023-09-07T04:54:47;100167.78;;;18.59;100.00
43364;BME280;40636;52.424;-1.948;2023-09-07T04:57:17;100168.97;;;18.53;100.00
43364;BME280;40636;52.424;-1.948;2023-09-07T04:59:46;100176.84;;;18.46;100.00
43364;BME280;40636;52.424;-1.948;2023-09-07T05:02:13;100170.22;;;18.42;100.00
43364;BME280;40636;52.424;-1.948;2023-09-07T05:04:40;100167.75;;;18.40;100.00
43364;BME280;40636;52.424;-1.948;2023-09-07T05:07:07;100168.84;;;18.39;100.00
43364;BME280;40636;52.424;-1.948;2023-09-07T05:09:34;100168.31;;;18.37;100.00
43364;BME280;40636;52.424;-1.948;2023-09-07T05:12:01;100164.78;;;18.32;100.00
43364;BME280;40636;52.424;-1.948;2023-09-07T05:14:28;100160.63;;;18.29;100.00
43364;BME280;40636;52.424;-1.948;2023-09-07T05:16:56;100166.50;;;18.28;100.00
43364;BME280;40636;52.424;-1.948;2023-09-07T05:19:23;100170.41;;;18.27;100.00
43364;BME280;40636;52.424;-1.948;2023-09-07T05:21:50;100164.31;;;18.24;100.00
43364;BME280;40636;52.424;-1.948;2023-09-07T05:24:16;100163.72;;;18.28;100.00
43364;BME280;40636;52.424;-1.948;2023-09-07T05:26:43;100160.41;;;18.25;100.00
43364;BME280;40636;52.424;-1.948;2023-09-07T05:29:11;100157.94;;;18.24;100.00
43364;BME280;40636;52.424;-1.948;2023-09-07T05:31:38;100154.84;;;18.25;100.00
43364;BME280;40636;52.424;-1.948;2023-09-07T05:34:05;100159.56;;;18.25;100.00
43364;BME280;40636;52.424;-1.948;2023-09-07T05:36:32;100164.25;;;18.30;100.00
43364;BME280;40636;52.424;-1.948;2023-09-07T05:38:59;100159.22;;;18.32;100.00
43364;BME280;40636;52.424;-1.948;2023-09-07T05:41:28;100163.34;;;18.34;100.00
43364;BME280;40636;52.424;-1.948;2023-09-07T05:43:55;100164.19;;;18.35;100.00
43364;BME280;40636;52.424;-1.948;2023-09-07T05:46:22;100169.72;;;18.35;100.00
43364;BME280;40636;52.424;-1.948;2023-09-07T05:48:49;100182.28;;;18.32;100.00
43364;BME280;40636;52.424;-1.948;2023-09-07T05:51:16;100185.38;;;18.31;100.00
43364;BME280;40636;52.424;-1.948;2023-09-07T05:53:43;100183.69;;;18.30;100.00
43364;BME280;40636;52.424;-1.948;2023-09-07T05:56:10;100182.88;;;18.29;100.00
43364;BME280;40636;52.424;-1.948;2023-09-07T05:58:36;100190.94;;;18.31;100.00
43364;BME280;40636;52.424;-1.948;2023-09-07T06:01:03;100177.56;;;18.33;100.00
43364;BME280;40636;52.424;-1.948;2023-09-07T06:03:33;100170.59;;;18.35;100.00
43364;BME280;40636;52.424;-1.948;2023-09-07T06:06:01;100162.78;;;18.37;100.00
43364;BME280;40636;52.424;-1.948;2023-09-07T06:08:29;100159.50;;;18.30;100.00
43364;BME280;40636;52.424;-1.948;2023-09-07T06:10:56;100167.31;;;18.28;100.00
43364;BME280;40636;52.424;-1.948;2023-09-07T06:13:23;100163.16;;;18.31;100.00
43364;BME280;40636;52.424;-1.948;2023-09-07T06:15:50;100167.56;;;18.32;100.00
43364;BME280;40636;52.424;-1.948;2023-09-07T06:18:17;100174.28;;;18.25;100.00
43364;BME280;40636;52.424;-1.948;2023-09-07T06:20:43;100174.25;;;18.31;100.00
43364;BME280;40636;52.424;-1.948;2023-09-07T06:23:10;100174.25;;;18.31;100.00
43364;BME280;40636;52.424;-1.948;2023-09-07T06:25:37;100172.81;;;18.33;100.00
43364;BME280;40636;52.424;-1.948;2023-09-07T06:28:05;100176.97;;;18.36;100.00
43364;BME280;40636;52.424;-1.948;2023-09-07T06:30:31;100178.63;;;18.37;100.00
43364;BME280;40636;52.424;-1.948;2023-09-07T06:32:59;100173.88;;;18.37;100.00
43364;BME280;40636;52.424;-1.948;2023-09-07T06:35:26;100169.69;;;18.40;100.00
43364;BME280;40636;52.424;-1.948;2023-09-07T06:37:53;100179.38;;;18.42;100.00
43364;BME280;40636;52.424;-1.948;2023-09-07T06:40:20;100186.22;;;18.50;100.00
43364;BME280;40636;52.424;-1.948;2023-09-07T06:42:46;100182.56;;;18.55;100.00
43364;BME280;40636;52.424;-1.948;2023-09-07T06:45:13;100200.53;;;18.62;100.00
43364;BME280;40636;52.424;-1.948;2023-09-07T06:47:40;100205.22;;;18.67;100.00
43364;BME280;40636;52.424;-1.948;2023-09-07T06:50:07;100211.81;;;18.71;100.00
43364;BME280;40636;52.424;-1.948;2023-09-07T06:52:34;100215.91;;;18.79;100.00
43364;BME280;40636;52.424;-1.948;2023-09-07T06:55:01;100214.19;;;18.83;100.00
43364;BME280;40636;52.424;-1.948;2023-09-07T06:57:28;100222.75;;;18.86;100.00
43364;BME280;40636;52.424;-1.948;2023-09-07T06:59:55;100219.97;;;18.86;100.00
43364;BME280;40636;52.424;-1.948;2023-09-07T07:02:22;100225.78;;;18.90;100.00
43364;BME280;40636;52.424;-1.948;2023-09-07T07:04:49;100231.84;;;18.92;100.00
43364;BME280;40636;52.424;-1.948;2023-09-07T07:07:17;100231.78;;;18.97;100.00
43364;BME280;40636;52.424;-1.948;2023-09-07T07:09:44;100230.59;;;19.03;100.00
43364;BME280;40636;52.424;-1.948;2023-09-07T07:12:11;100223.22;;;19.12;100.00
43364;BME280;40636;52.424;-1.948;2023-09-07T07:14:38;100223.66;;;19.19;100.00
43364;BME280;40636;52.424;-1.948;2023-09-07T07:17:05;100225.84;;;19.22;100.00
43364;BME280;40636;52.424;-1.948;2023-09-07T07:19:32;100228.88;;;19.26;100.00
43364;BME280;40636;52.424;-1.948;2023-09-07T07:21:59;100227.41;;;19.29;100.00
43364;BME280;40636;52.424;-1.948;2023-09-07T07:24:26;100228.47;;;19.33;100.00
43364;BME280;40636;52.424;-1.948;2023-09-07T07:26:53;100223.88;;;19.42;100.00
43364;BME280;40636;52.424;-1.948;2023-09-07T07:29:20;100223.38;;;19.40;100.00
43364;BME280;40636;52.424;-1.948;2023-09-07T07:31:47;100219.88;;;19.48;100.00
43364;BME280;40636;52.424;-1.948;2023-09-07T07:34:14;100220.91;;;19.52;100.00
43364;BME280;40636;52.424;-1.948;2023-09-07T07:36:41;100224.75;;;19.56;100.00
43364;BME280;40636;52.424;-1.948;2023-09-07T07:39:08;100218.69;;;19.54;100.00
43364;BME280;40636;52.424;-1.948;2023-09-07T07:41:36;100218.97;;;19.71;100.00
43364;BME280;40636;52.424;-1.948;2023-09-07T07:44:08;100219.28;;;19.84;100.00
43364;BME280;40636;52.424;-1.948;2023-09-07T07:46:35;100218.78;;;19.82;100.00
43364;BME280;40636;52.424;-1.948;2023-09-07T07:49:03;100224.69;;;19.94;100.00
43364;BME280;40636;52.424;-1.948;2023-09-07T07:51:30;100221.00;;;19.98;100.00
43364;BME280;40636;52.424;-1.948;2023-09-07T07:53:57;100222.44;;;20.10;100.00
43364;BME280;40636;52.424;-1.948;2023-09-07T07:56:24;100210.81;;;20.21;100.00
43364;BME280;40636;52.424;-1.948;2023-09-07T07:58:52;100212.69;;;20.26;100.00
43364;BME280;40636;52.424;-1.948;2023-09-07T08:01:19;100219.69;;;20.37;100.00
43364;BME280;40636;52.424;-1.948;2023-09-07T08:03:50;100200.06;;;20.42;100.00
43364;BME280;40636;52.424;-1.948;2023-09-07T08:06:18;100201.53;;;20.40;100.00
43364;BME280;40636;52.424;-1.948;2023-09-07T08:08:46;100197.59;;;20.41;100.00
43364;BME280;40636;52.424;-1.948;2023-09-07T08:11:13;100203.38;;;20.31;100.00
43364;BME280;40636;52.424;-1.948;2023-09-07T08:13:41;100201.31;;;20.36;100.00
43364;BME280;40636;52.424;-1.948;2023-09-07T08:16:08;100207.72;;;20.37;100.00
43364;BME280;40636;52.424;-1.948;2023-09-07T08:18:39;100199.78;;;20.44;100.00
43364;BME280;40636;52.424;-1.948;2023-09-07T08:21:07;100204.22;;;20.45;100.00
43364;BME280;40636;52.424;-1.948;2023-09-07T08:23:34;100200.09;;;20.56;100.00
43364;BME280;40636;52.424;-1.948;2023-09-07T08:26:00;100206.81;;;20.55;100.00
43364;BME280;40636;52.424;-1.948;2023-09-07T08:28:28;100197.94;;;20.53;100.00
43364;BME280;40636;52.424;-1.948;2023-09-07T08:30:56;100197.41;;;20.51;100.00
43364;BME280;40636;52.424;-1.948;2023-09-07T08:33:26;100195.16;;;20.53;100.00
43364;BME280;40636;52.424;-1.948;2023-09-07T08:35:56;100187.78;;;20.57;100.00
43364;BME280;40636;52.424;-1.948;2023-09-07T08:38:23;100197.19;;;20.61;100.00
43364;BME280;40636;52.424;-1.948;2023-09-07T08:40:55;100195.53;;;20.60;100.00
43364;BME280;40636;52.424;-1.948;2023-09-07T08:43:28;100178.00;;;20.60;100.00
43364;BME280;40636;52.424;-1.948;2023-09-07T08:46:15;100185.72;;;20.76;100.00
43364;BME280;40636;52.424;-1.948;2023-09-07T08:48:43;100179.78;;;20.92;100.00
43364;BME280;40636;52.424;-1.948;2023-09-07T08:51:11;100173.66;;;21.03;100.00
43364;BME280;40636;52.424;-1.948;2023-09-07T08:53:40;100171.44;;;21.14;100.00
43364;BME280;40636;52.424;-1.948;2023-09-07T08:56:07;100175.13;;;21.23;100.00
43364;BME280;40636;52.424;-1.948;2023-09-07T08:58:40;100178.25;;;21.22;100.00
43364;BME280;40636;52.424;-1.948;2023-09-07T09:01:17;100176.56;;;21.21;100.00
43364;BME280;40636;52.424;-1.948;2023-09-07T09:03:45;100177.59;;;21.25;100.00
43364;BME280;40636;52.424;-1.948;2023-09-07T09:06:14;100174.78;;;21.39;100.00
43364;BME280;40636;52.424;-1.948;2023-09-07T09:08:55;100172.09;;;21.56;100.00
43364;BME280;40636;52.424;-1.948;2023-09-07T09:11:28;100178.91;;;21.64;100.00
43364;BME280;40636;52.424;-1.948;2023-09-07T09:13:57;100170.78;;;21.76;100.00
43364;BME280;40636;52.424;-1.948;2023-09-07T09:16:25;100170.69;;;21.90;100.00
43364;BME280;40636;52.424;-1.948;2023-09-07T09:18:56;100159.91;;;22.06;100.00
43364;BME280;40636;52.424;-1.948;2023-09-07T09:21:26;100160.56;;;22.11;100.00
43364;BME280;40636;52.424;-1.948;2023-09-07T09:23:56;100161.78;;;22.19;100.00
43364;BME280;40636;52.424;-1.948;2023-09-07T09:26:23;100174.34;;;22.39;100.00
43364;BME280;40636;52.424;-1.948;2023-09-07T09:28:55;100166.00;;;22.47;100.00
43364;BME280;40636;52.424;-1.948;2023-09-07T09:31:23;100169.47;;;22.53;100.00
43364;BME280;40636;52.424;-1.948;2023-09-07T09:33:51;100174.25;;;22.61;100.00
43364;BME280;40636;52.424;-1.948;2023-09-07T09:36:18;100175.75;;;22.67;100.00
43364;BME280;40636;52.424;-1.948;2023-09-07T09:38:51;100164.59;;;22.76;100.00
43364;BME280;40636;52.424;-1.948;2023-09-07T09:41:20;100172.16;;;22.84;100.00
43364;BME280;40636;52.424;-1.948;2023-09-07T09:43:50;100175.78;;;22.85;100.00
43364;BME280;40636;52.424;-1.948;2023-09-07T09:46:18;100165.41;;;22.76;100.00
43364;BME280;40636;52.424;-1.948;2023-09-07T09:48:47;100172.19;;;22.93;100.00
43364;BME280;40636;52.424;-1.948;2023-09-07T09:51:14;100176.66;;;22.94;100.00
43364;BME280;40636;52.424;-1.948;2023-09-07T09:53:42;100174.84;;;23.07;100.00
43364;BME280;40636;52.424;-1.948;2023-09-07T09:56:10;100172.22;;;23.19;100.00
43364;BME280;40636;52.424;-1.948;2023-09-07T09:58:37;100165.78;;;23.36;100.00
43364;BME280;40636;52.424;-1.948;2023-09-07T10:01:05;100167.06;;;23.47;100.00
43364;BME280;40636;52.424;-1.948;2023-09-07T10:03:38;100165.59;;;23.58;100.00
43364;BME280;40636;52.424;-1.948;2023-09-07T10:06:23;100167.41;;;23.71;100.00
43364;BME280;40636;52.424;-1.948;2023-09-07T10:09:02;100163.75;;;23.71;100.00
43364;BME280;40636;52.424;-1.948;2023-09-07T10:11:36;100163.25;;;23.60;100.00
43364;BME280;40636;52.424;-1.948;2023-09-07T10:14:07;100163.94;;;23.66;100.00
43364;BME280;40636;52.424;-1.948;2023-09-07T10:16:59;100170.19;;;23.80;100.00
43364;BME280;40636;52.424;-1.948;2023-09-07T10:19:31;100163.06;;;23.83;100.00
43364;BME280;40636;52.424;-1.948;2023-09-07T10:21:58;100156.66;;;23.82;100.00
43364;BME280;40636;52.424;-1.948;2023-09-07T10:24:33;100161.44;;;23.82;100.00
43364;BME280;40636;52.424;-1.948;2023-09-07T10:27:08;100154.53;;;23.70;100.00
43364;BME280;40636;52.424;-1.948;2023-09-07T10:29:50;100160.47;;;23.60;100.00
43364;BME280;40636;52.424;-1.948;2023-09-07T10:32:38;100156.84;;;23.68;100.00
43364;BME280;40636;52.424;-1.948;2023-09-07T10:35:14;100159.66;;;23.68;100.00
43364;BME280;40636;52.424;-1.948;2023-09-07T10:37:46;100154.19;;;23.63;100.00
43364;BME280;40636;52.424;-1.948;2023-09-07T10:40:24;100146.78;;;23.59;100.00
43364;BME280;40636;52.424;-1.948;2023-09-07T10:43:01;100148.09;;;23.61;100.00
43364;BME280;40636;52.424;-1.948;2023-09-07T10:45:29;100146.63;;;23.72;100.00
43364;BME280;40636;52.424;-1.948;2023-09-07T10:47:56;100146.78;;;23.76;100.00
43364;BME280;40636;52.424;-1.948;2023-09-07T10:50:22;100146.25;;;23.83;100.00
43364;BME280;40636;52.424;-1.948;2023-09-07T10:52:49;100143.47;;;23.83;100.00
43364;BME280;40636;52.424;-1.948;2023-09-07T10:55:16;100138.56;;;23.53;100.00
43364;BME280;40636;52.424;-1.948;2023-09-07T10:57:45;100136.91;;;23.70;100.00
43364;BME280;40636;52.424;-1.948;2023-09-07T11:00:13;100134.59;;;23.72;100.00
43364;BME280;40636;52.424;-1.948;2023-09-07T11:02:42;100134.25;;;23.73;100.00
43364;BME280;40636;52.424;-1.948;2023-09-07T11:05:10;100132.44;;;23.77;100.00
43364;BME280;40636;52.424;-1.948;2023-09-07T11:07:37;100127.63;;;23.87;100.00
43364;BME280;40636;52.424;-1.948;2023-09-07T11:10:06;100122.41;;;24.06;100.00
43364;BME280;40636;52.424;-1.948;2023-09-07T11:12:39;100109.75;;;24.29;100.00
43364;BME280;40636;52.424;-1.948;2023-09-07T11:15:11;100112.03;;;24.45;100.00
43364;BME280;40636;52.424;-1.948;2023-09-07T11:17:38;100110.88;;;24.67;100.00
43364;BME280;40636;52.424;-1.948;2023-09-07T11:20:07;100101.28;;;24.89;100.00
43364;BME280;40636;52.424;-1.948;2023-09-07T11:22:34;100104.13;;;25.10;100.00
43364;BME280;40636;52.424;-1.948;2023-09-07T11:25:24;100100.88;;;25.20;100.00
43364;BME280;40636;52.424;-1.948;2023-09-07T11:27:52;100101.50;;;25.25;100.00
43364;BME280;40636;52.424;-1.948;2023-09-07T11:30:24;100099.28;;;25.31;100.00
43364;BME280;40636;52.424;-1.948;2023-09-07T11:35:34;100084.34;;;25.39;100.00
43364;BME280;40636;52.424;-1.948;2023-09-07T11:38:08;100084.44;;;25.30;100.00
43364;BME280;40636;52.424;-1.948;2023-09-07T11:40:40;100091.19;;;25.29;100.00
43364;BME280;40636;52.424;-1.948;2023-09-07T11:43:16;100081.47;;;25.27;100.00
43364;BME280;40636;52.424;-1.948;2023-09-07T11:45:44;100090.94;;;25.22;100.00
43364;BME280;40636;52.424;-1.948;2023-09-07T11:48:11;100077.16;;;25.29;100.00
43364;BME280;40636;52.424;-1.948;2023-09-07T11:50:40;100075.78;;;25.36;100.00
43364;BME280;40636;52.424;-1.948;2023-09-07T11:53:07;100072.75;;;25.41;100.00
43364;BME280;40636;52.424;-1.948;2023-09-07T11:55:35;100073.19;;;25.43;100.00
43364;BME280;40636;52.424;-1.948;2023-09-07T11:58:03;100072.97;;;25.36;100.00
43364;BME280;40636;52.424;-1.948;2023-09-07T12:00:31;100073.78;;;25.36;100.00
43364;BME280;40636;52.424;-1.948;2023-09-07T12:02:59;100074.97;;;25.47;100.00
43364;BME280;40636;52.424;-1.948;2023-09-07T12:05:26;100059.50;;;25.41;100.00
43364;BME280;40636;52.424;-1.948;2023-09-07T12:07:53;100062.91;;;25.47;100.00
43364;BME280;40636;52.424;-1.948;2023-09-07T12:10:21;100061.50;;;25.41;100.00
43364;BME280;40636;52.424;-1.948;2023-09-07T12:12:48;100063.81;;;25.39;100.00
43364;BME280;40636;52.424;-1.948;2023-09-07T12:15:15;100057.88;;;25.52;100.00
43364;BME280;40636;52.424;-1.948;2023-09-07T12:17:42;100065.41;;;25.61;100.00
43364;BME280;40636;52.424;-1.948;2023-09-07T12:20:09;100059.44;;;25.62;100.00
43364;BME280;40636;52.424;-1.948;2023-09-07T12:22:37;100046.78;;;25.68;100.00
43364;BME280;40636;52.424;-1.948;2023-09-07T12:25:07;100052.41;;;25.68;100.00
43364;BME280;40636;52.424;-1.948;2023-09-07T12:27:42;100054.78;;;25.66;100.00
43364;BME280;40636;52.424;-1.948;2023-09-07T12:30:18;100049.97;;;25.67;100.00
43364;BME280;40636;52.424;-1.948;2023-09-07T12:32:47;100051.59;;;25.68;100.00
43364;BME280;40636;52.424;-1.948;2023-09-07T12:35:14;100048.84;;;25.80;100.00
43364;BME280;40636;52.424;-1.948;2023-09-07T12:37:42;100041.00;;;25.86;100.00
43364;BME280;40636;52.424;-1.948;2023-09-07T12:40:09;100042.16;;;25.85;100.00
43364;BME280;40636;52.424;-1.948;2023-09-07T12:42:44;100042.16;;;25.85;100.00